createdAt,value
2019-04-23T00:01:05.211Z,996.02
2019-04-23T00:01:54.311Z,995.99
2019-04-23T00:02:50.903Z,995.99
2019-04-23T00:04:02.553Z,995.99
2019-04-23T00:04:47.978Z,995.97
2019-04-23T00:06:57.453Z,995.99
2019-04-23T00:10:01.311Z,995.95
2019-04-23T00:10:55.236Z,995.97
2019-04-23T00:11:51.429Z,995.96
2019-04-23T00:12:54.198Z,995.97
2019-04-23T00:13:49.780Z,995.90
2019-04-23T00:14:57.694Z,995.92
2019-04-23T00:15:58.697Z,995.92
2019-04-23T00:16:49.316Z,995.92
2019-04-23T00:17:50.261Z,995.89
2019-04-23T00:18:47.899Z,995.91
2019-04-23T00:19:55.641Z,995.87
2019-04-23T00:20:54.935Z,995.90
2019-04-23T00:21:53.518Z,995.87
2019-04-23T00:22:53.316Z,995.88
2019-04-23T00:24:11.763Z,995.88
2019-04-23T00:26:54.862Z,995.89
2019-04-23T00:27:50.409Z,995.92
2019-04-23T00:29:56.511Z,995.90
2019-04-23T00:31:49.884Z,995.84
2019-04-23T00:32:46.154Z,995.85
2019-04-23T00:33:50.226Z,995.88
2019-04-23T00:34:55.796Z,995.82
2019-04-23T00:35:53.374Z,995.83
2019-04-23T00:36:53.729Z,995.82
2019-04-23T00:37:47.373Z,995.84
2019-04-23T00:39:06.384Z,995.84
2019-04-23T00:40:53.925Z,995.85
2019-04-23T00:41:54.984Z,995.84
2019-04-23T00:42:51.736Z,995.82
2019-04-23T00:43:56.220Z,995.84
2019-04-23T00:44:52.794Z,995.81
2019-04-23T00:45:48.700Z,995.80
2019-04-23T00:46:48.003Z,995.81
2019-04-23T00:47:49.942Z,995.76
2019-04-23T00:49:58.684Z,995.75
2019-04-23T00:50:59.075Z,995.70
2019-04-23T00:51:50.137Z,995.69
2019-04-23T00:52:50.397Z,995.71
2019-04-23T00:53:54.609Z,995.71
2019-04-23T00:54:57.967Z,995.70
2019-04-23T00:57:07.487Z,995.71
2019-04-23T00:57:56.106Z,995.71
2019-04-23T00:58:52.336Z,995.71
2019-04-23T01:00:03.464Z,995.68
2019-04-23T01:02:18.042Z,995.66
2019-04-23T01:02:53.357Z,995.60
2019-04-23T01:03:52.569Z,995.59
2019-04-23T01:04:55.857Z,995.60
2019-04-23T01:05:50.374Z,995.58
2019-04-23T01:06:52.377Z,995.54
2019-04-23T01:07:55.947Z,995.61
2019-04-23T01:08:52.404Z,995.61
2019-04-23T01:09:52.460Z,995.65
2019-04-23T01:10:53.979Z,995.61
2019-04-23T01:11:48.189Z,995.61
2019-04-23T01:13:14.621Z,995.60
2019-04-23T01:13:50.434Z,995.60
2019-04-23T01:14:52.007Z,995.55
2019-04-23T01:15:57.726Z,995.54
2019-04-23T01:16:45.900Z,995.55
2019-04-23T01:17:53.338Z,995.53
2019-04-23T01:18:51.599Z,995.51
2019-04-23T01:19:50.149Z,995.52
2019-04-23T01:20:51.850Z,995.49
2019-04-23T01:21:28.703Z,995.49
2019-04-23T01:22:29.388Z,995.52
2019-04-23T01:23:39.052Z,995.55
2019-04-23T01:24:31.482Z,995.54
2019-04-23T01:25:40.502Z,995.53
2019-04-23T01:26:57.603Z,995.54
2019-04-23T01:28:55.913Z,995.49
2019-04-23T01:30:01.394Z,995.47
2019-04-23T01:30:59.754Z,995.45
2019-04-23T01:31:53.115Z,995.37
2019-04-23T01:32:55.182Z,995.41
2019-04-23T01:33:51.793Z,995.39
2019-04-23T01:34:59.085Z,995.37
2019-04-23T01:37:01.170Z,995.35
2019-04-23T01:37:50.601Z,995.37
2019-04-23T01:38:53.455Z,995.41
2019-04-23T01:39:58.142Z,995.38
2019-04-23T01:41:58.003Z,995.39
2019-04-23T01:42:52.056Z,995.39
2019-04-23T01:43:50.261Z,995.36
2019-04-23T01:45:03.356Z,995.37
2019-04-23T01:45:50.198Z,995.40
2019-04-23T01:46:54.533Z,995.39
2019-04-23T01:47:54.759Z,995.39
2019-04-23T01:48:52.064Z,995.39
2019-04-23T01:50:03.613Z,995.38
2019-04-23T01:50:54.573Z,995.37
2019-04-23T01:51:54.892Z,995.35
2019-04-23T01:53:51.541Z,995.32
2019-04-23T01:54:52.887Z,995.36
2019-04-23T01:56:56.666Z,995.34
2019-04-23T01:58:05.811Z,995.34
2019-04-23T02:00:53.217Z,995.23
2019-04-23T02:02:57.815Z,995.24
2019-04-23T02:03:54.340Z,995.20
2019-04-23T02:05:02.933Z,995.16
2019-04-23T02:05:58.901Z,995.20
2019-04-23T02:06:53.845Z,995.18
2019-04-23T02:10:14.216Z,995.12
2019-04-23T02:12:56.891Z,995.07
2019-04-23T02:13:55.592Z,995.02
2019-04-23T02:14:57.855Z,995.03
2019-04-23T02:15:53.365Z,995.02
2019-04-23T02:16:56.404Z,995.03
2019-04-23T02:18:02.454Z,995.02
2019-04-23T02:18:59.569Z,995.00
2019-04-23T02:20:01.301Z,995.02
2019-04-23T02:20:57.636Z,994.98
2019-04-23T02:23:04.992Z,994.96
2019-04-23T02:24:04.337Z,994.97
2019-04-23T02:24:54.561Z,994.97
2019-04-23T02:26:50.440Z,994.95
2019-04-23T02:28:01.881Z,994.90
2019-04-23T02:30:06.762Z,994.91
2019-04-23T02:33:10.672Z,994.84
2019-04-23T02:34:07.274Z,994.89
2019-04-23T02:36:07.625Z,994.86
2019-04-23T02:37:22.444Z,994.83
2019-04-23T02:38:15.762Z,994.87
2019-04-23T02:38:58.355Z,994.84
2019-04-23T02:40:08.828Z,994.83
2019-04-23T02:42:23.270Z,994.82
2019-04-23T02:43:06.808Z,994.83
2019-04-23T02:44:07.013Z,994.77
2019-04-23T02:46:02.442Z,994.74
2019-04-23T02:49:05.084Z,994.74
2019-04-23T02:50:09.231Z,994.75
2019-04-23T02:51:03.963Z,994.73
2019-04-23T02:51:59.334Z,994.72
2019-04-23T02:53:09.346Z,994.71
2019-04-23T02:56:24.181Z,994.68
2019-04-23T02:56:55.679Z,994.68
2019-04-23T02:58:01.168Z,994.63
2019-04-23T02:59:03.433Z,994.58
2019-04-23T03:00:12.421Z,994.62
2019-04-23T03:01:18.444Z,994.64
2019-04-23T03:02:21.391Z,994.63
2019-04-23T03:04:09.687Z,994.56
2019-04-23T03:05:00.897Z,994.58
2019-04-23T03:07:09.450Z,994.56
2019-04-23T03:08:49.155Z,994.55
2019-04-23T03:10:00.404Z,994.52
2019-04-23T03:15:14.905Z,994.50
2019-04-23T03:16:08.351Z,994.46
2019-04-23T03:16:56.558Z,994.47
2019-04-23T03:18:15.302Z,994.52
2019-04-23T03:22:09.420Z,994.50
2019-04-23T03:24:21.385Z,994.50
2019-04-23T03:27:55.995Z,994.45
2019-04-23T03:29:04.267Z,994.53
2019-04-23T03:32:37.269Z,994.45
2019-04-23T03:38:51.754Z,994.52
2019-04-23T03:40:01.946Z,994.49
2019-04-23T03:41:10.761Z,994.51
2019-04-23T03:42:02.945Z,994.55
2019-04-23T03:43:06.593Z,994.52
2019-04-23T03:44:05.218Z,994.53
2019-04-23T03:45:07.692Z,994.51
2019-04-23T03:47:04.264Z,994.54
2019-04-23T03:49:09.590Z,994.57
2019-04-23T03:50:05.259Z,994.61
2019-04-23T03:50:55.922Z,994.55
2019-04-23T03:52:06.756Z,994.57
2019-04-23T03:52:57.778Z,994.54
2019-04-23T03:56:04.765Z,994.51
2019-04-23T03:57:13.546Z,994.54
2019-04-23T03:59:00.588Z,994.53
2019-04-23T04:00:02.364Z,994.50
2019-04-23T04:01:07.441Z,994.46
2019-04-23T04:02:10.632Z,994.51
2019-04-23T04:05:08.152Z,994.48
2019-04-23T04:07:13.341Z,994.39
2019-04-23T04:08:07.213Z,994.43
2019-04-23T04:09:06.106Z,994.41
2019-04-23T04:09:53.844Z,994.40
2019-04-23T04:11:57.276Z,994.42
2019-04-23T04:12:56.762Z,994.41
2019-04-23T04:17:03.612Z,994.40
2019-04-23T04:18:13.929Z,994.42
2019-04-23T04:21:11.232Z,994.32
2019-04-23T04:22:15.873Z,994.35
2019-04-23T04:23:15.399Z,994.31
2019-04-23T04:24:11.411Z,994.30
2019-04-23T04:25:02.049Z,994.34
2019-04-23T04:25:56.845Z,994.34
2019-04-23T04:27:05.389Z,994.32
2019-04-23T04:30:00.920Z,994.33
2019-04-23T04:30:53.760Z,994.30
2019-04-23T04:32:03.692Z,994.33
2019-04-23T04:34:10.905Z,994.32
2019-04-23T04:36:08.282Z,994.30
2019-04-23T04:37:27.065Z,994.29
2019-04-23T04:38:12.568Z,994.25
2019-04-23T04:39:08.274Z,994.27
2019-04-23T04:40:04.648Z,994.29
2019-04-23T04:41:03.451Z,994.26
2019-04-23T04:43:16.084Z,994.28
2019-04-23T04:44:32.568Z,994.27
2019-04-23T04:45:00.042Z,994.24
2019-04-23T04:46:21.327Z,994.21
2019-04-23T04:48:07.301Z,994.22
2019-04-23T04:49:04.861Z,994.24
2019-04-23T04:50:10.296Z,994.19
2019-04-23T04:52:11.321Z,994.21
2019-04-23T04:53:14.802Z,994.17
2019-04-23T04:54:09.284Z,994.18
2019-04-23T04:54:57.678Z,994.19
2019-04-23T04:56:07.768Z,994.18
2019-04-23T04:57:00.827Z,994.17
2019-04-23T04:58:12.064Z,994.16
2019-04-23T05:02:08.792Z,994.12
2019-04-23T05:03:17.988Z,994.12
2019-04-23T05:03:58.197Z,994.11
2019-04-23T05:05:05.137Z,994.07
2019-04-23T05:09:02.218Z,994.09
2019-04-23T05:10:07.513Z,994.05
2019-04-23T05:11:05.397Z,994.04
2019-04-23T05:12:01.504Z,994.05
2019-04-23T05:13:15.645Z,994.06
2019-04-23T05:16:01.848Z,994.06
2019-04-23T05:16:57.332Z,993.99
2019-04-23T05:18:08.100Z,994.02
2019-04-23T05:19:04.162Z,993.97
2019-04-23T05:19:57.491Z,993.98
2019-04-23T05:20:58.035Z,993.99
2019-04-23T05:21:58.919Z,994.02
2019-04-23T05:23:54.554Z,993.98
2019-04-23T05:24:52.107Z,993.99
2019-04-23T05:25:49.660Z,993.96
2019-04-23T05:26:46.489Z,993.96
2019-04-23T05:28:05.622Z,993.96
2019-04-23T05:30:02.518Z,993.92
2019-04-23T05:30:59.973Z,993.90
2019-04-23T05:31:56.057Z,993.91
2019-04-23T05:33:02.683Z,993.89
2019-04-23T05:33:59.885Z,993.87
2019-04-23T05:34:55.804Z,993.89
2019-04-23T05:36:55.764Z,993.90
2019-04-23T05:40:19.729Z,993.94
2019-04-23T05:42:04.443Z,993.95
2019-04-23T05:42:53.279Z,993.94
2019-04-23T05:43:55.375Z,993.90
2019-04-23T05:46:17.951Z,993.94
2019-04-23T05:46:54.013Z,993.92
2019-04-23T05:47:59.429Z,993.90
2019-04-23T05:48:58.274Z,993.87
2019-04-23T05:49:50.515Z,993.86
2019-04-23T05:50:59.131Z,993.87
2019-04-23T05:51:55.072Z,993.84
2019-04-23T05:52:58.018Z,993.86
2019-04-23T05:54:06.861Z,993.80
2019-04-23T05:54:58.935Z,993.79
2019-04-23T05:55:59.795Z,993.83
2019-04-23T05:56:51.969Z,993.84
2019-04-23T05:57:53.916Z,993.76
2019-04-23T05:59:02.407Z,993.76
2019-04-23T06:00:59.815Z,993.71
2019-04-23T06:01:57.394Z,993.72
2019-04-23T06:02:56.914Z,993.71
2019-04-23T06:03:56.484Z,993.71
2019-04-23T06:04:49.641Z,993.68
2019-04-23T06:06:01.206Z,993.70
2019-04-23T06:08:55.073Z,993.67
2019-04-23T06:09:53.174Z,993.67
2019-04-23T06:10:57.139Z,993.67
2019-04-23T06:11:57.050Z,993.63
2019-04-23T06:12:52.208Z,993.64
2019-04-23T06:14:00.309Z,993.65
2019-04-23T06:14:52.470Z,993.62
2019-04-23T06:15:53.879Z,993.65
2019-04-23T06:17:53.921Z,993.61
2019-04-23T06:18:59.391Z,993.55
2019-04-23T06:19:56.963Z,993.57
2019-04-23T06:20:56.180Z,993.53
2019-04-23T06:23:54.686Z,993.54
2019-04-23T06:24:49.183Z,993.51
2019-04-23T06:26:19.703Z,993.51
2019-04-23T06:26:51.750Z,993.47
2019-04-23T06:27:56.839Z,993.47
2019-04-23T06:29:02.436Z,993.45
2019-04-23T06:29:50.097Z,993.45
2019-04-23T06:30:55.774Z,993.44
2019-04-23T06:32:51.538Z,993.41
2019-04-23T06:33:59.242Z,993.41
2019-04-23T06:34:53.176Z,993.42
2019-04-23T06:35:52.051Z,993.42
2019-04-23T06:36:51.229Z,993.39
2019-04-23T06:38:18.235Z,993.42
2019-04-23T06:39:02.822Z,993.43
2019-04-23T06:40:59.557Z,993.42
2019-04-23T06:42:52.108Z,993.39
2019-04-23T06:44:00.481Z,993.42
2019-04-23T06:44:53.510Z,993.35
2019-04-23T06:45:49.425Z,993.31
2019-04-23T06:46:56.783Z,993.35
2019-04-23T06:47:54.049Z,993.32
2019-04-23T06:48:47.109Z,993.26
2019-04-23T06:51:02.401Z,993.24
2019-04-23T06:52:00.721Z,993.26
2019-04-23T06:52:50.124Z,993.25
2019-04-23T06:53:51.325Z,993.24
2019-04-23T06:54:54.340Z,993.22
2019-04-23T06:57:02.312Z,993.13
2019-04-23T06:57:47.815Z,993.15
2019-04-23T06:58:47.314Z,993.16
2019-04-23T06:59:52.745Z,993.12
2019-04-23T07:00:57.019Z,993.12
2019-04-23T07:02:04.707Z,993.16
2019-04-23T07:02:54.154Z,993.15
2019-04-23T07:03:51.842Z,993.12
2019-04-23T07:04:56.924Z,993.12
2019-04-23T07:06:03.691Z,993.12
2019-04-23T07:07:50.021Z,993.07
2019-04-23T07:09:52.355Z,993.05
2019-04-23T07:11:49.704Z,993.08
2019-04-23T07:12:57.780Z,993.07
2019-04-23T07:13:57.624Z,993.10
2019-04-23T07:15:58.431Z,993.01
2019-04-23T07:16:52.840Z,993.03
2019-04-23T07:17:51.984Z,993.01
2019-04-23T07:19:48.417Z,993.01
2019-04-23T07:20:50.529Z,993.00
2019-04-23T07:21:55.951Z,992.98
2019-04-23T07:22:56.759Z,992.95
2019-04-23T07:24:58.032Z,992.94
2019-04-23T07:26:02.531Z,992.95
2019-04-23T07:26:41.956Z,992.97
2019-04-23T07:27:51.229Z,992.91
2019-04-23T07:29:58.524Z,992.89
2019-04-23T07:30:53.999Z,992.88
2019-04-23T07:31:53.924Z,992.84
2019-04-23T07:32:52.904Z,992.85
2019-04-23T07:33:55.816Z,992.88
2019-04-23T07:34:55.281Z,992.83
2019-04-23T07:35:52.282Z,992.80
2019-04-23T07:36:47.385Z,992.75
2019-04-23T07:37:54.754Z,992.78
2019-04-23T07:39:01.532Z,992.73
2019-04-23T07:39:57.059Z,992.75
2019-04-23T07:40:51.346Z,992.69
2019-04-23T07:42:01.615Z,992.72
2019-04-23T07:42:54.175Z,992.71
2019-04-23T07:43:54.463Z,992.67
2019-04-23T07:45:51.694Z,992.63
2019-04-23T07:47:03.279Z,992.65
2019-04-23T07:48:01.429Z,992.68
2019-04-23T07:48:49.151Z,992.63
2019-04-23T07:50:04.840Z,992.65
2019-04-23T07:50:55.140Z,992.66
2019-04-23T07:51:55.120Z,992.65
2019-04-23T07:53:01.930Z,992.54
2019-04-23T07:53:52.025Z,992.58
2019-04-23T07:54:57.942Z,992.55
2019-04-23T07:55:56.723Z,992.52
2019-04-23T07:56:53.929Z,992.56
2019-04-23T07:58:03.708Z,992.55
2019-04-23T07:58:46.372Z,992.58
2019-04-23T07:59:56.237Z,992.57
2019-04-23T08:01:49.070Z,992.57
2019-04-23T08:02:58.255Z,992.53
2019-04-23T08:05:04.793Z,992.55
2019-04-23T08:05:52.397Z,992.51
2019-04-23T08:06:54.213Z,992.48
2019-04-23T08:07:49.793Z,992.50
2019-04-23T08:08:49.133Z,992.49
2019-04-23T08:09:58.073Z,992.52
2019-04-23T08:11:14.351Z,992.49
2019-04-23T08:11:54.311Z,992.49
2019-04-23T08:12:55.526Z,992.47
2019-04-23T08:14:00.453Z,992.46
2019-04-23T08:14:55.140Z,992.45
2019-04-23T08:15:57.265Z,992.43
2019-04-23T08:16:43.812Z,992.41
2019-04-23T08:17:50.759Z,992.40
2019-04-23T08:19:57.587Z,992.41
2019-04-23T08:20:56.607Z,992.38
2019-04-23T08:22:02.484Z,992.36
2019-04-23T08:22:55.004Z,992.30
2019-04-23T08:23:58.618Z,992.28
2019-04-23T08:25:01.107Z,992.35
2019-04-23T08:26:03.277Z,992.35
2019-04-23T08:26:55.247Z,992.29
2019-04-23T08:27:51.526Z,992.31
2019-04-23T08:28:59.646Z,992.36
2019-04-23T08:29:44.517Z,992.33
2019-04-23T08:30:55.492Z,992.33
2019-04-23T08:31:52.011Z,992.36
2019-04-23T08:32:53.845Z,992.31
2019-04-23T08:33:56.936Z,992.33
2019-04-23T08:34:57.801Z,992.36
2019-04-23T08:35:59.304Z,992.24
2019-04-23T08:37:01.313Z,992.18
2019-04-23T08:38:51.139Z,992.20
2019-04-23T08:39:46.436Z,992.23
2019-04-23T08:42:12.550Z,992.19
2019-04-23T08:42:58.107Z,992.22
2019-04-23T08:44:15.657Z,992.19
2019-04-23T08:45:03.135Z,992.23
2019-04-23T08:45:46.296Z,992.19
2019-04-23T08:47:06.904Z,992.18
2019-04-23T08:47:59.185Z,992.17
2019-04-23T08:52:58.176Z,992.06
2019-04-23T08:53:47.979Z,992.07
2019-04-23T08:56:05.118Z,992.02
2019-04-23T08:56:58.599Z,992.03
2019-04-23T08:57:45.315Z,992.02
2019-04-23T08:58:49.347Z,992.07
2019-04-23T08:59:50.225Z,992.06
2019-04-23T09:00:51.878Z,992.05
2019-04-23T09:02:07.638Z,992.04
2019-04-23T09:03:00.916Z,992.02
2019-04-23T09:03:45.966Z,991.99
2019-04-23T09:04:54.285Z,992.02
2019-04-23T09:05:54.359Z,992.00
2019-04-23T09:06:59.248Z,991.96
2019-04-23T09:08:49.513Z,991.96
2019-04-23T09:11:54.388Z,991.97
2019-04-23T09:12:58.749Z,991.93
2019-04-23T09:14:52.338Z,991.94
2019-04-23T09:15:51.232Z,991.96
2019-04-23T09:16:50.947Z,991.93
2019-04-23T09:18:01.175Z,991.91
2019-04-23T09:18:53.049Z,991.88
2019-04-23T09:20:07.066Z,991.91
2019-04-23T09:20:46.009Z,991.91
2019-04-23T09:21:59.195Z,991.93
2019-04-23T09:22:50.079Z,991.91
2019-04-23T09:23:54.125Z,991.92
2019-04-23T09:24:59.274Z,991.89
2019-04-23T09:26:56.228Z,991.87
2019-04-23T09:27:53.134Z,991.85
2019-04-23T09:28:51.901Z,991.86
2019-04-23T09:30:00.875Z,991.82
2019-04-23T09:30:55.790Z,991.82
2019-04-23T09:32:13.489Z,991.81
2019-04-23T09:32:51.946Z,991.82
2019-04-23T09:33:52.061Z,991.77
2019-04-23T09:34:58.891Z,991.75
2019-04-23T09:35:46.100Z,991.76
2019-04-23T09:37:56.120Z,991.73
2019-04-23T09:38:54.153Z,991.81
2019-04-23T09:39:49.817Z,991.81
2019-04-23T09:41:04.040Z,991.77
2019-04-23T09:41:48.399Z,991.71
2019-04-23T09:42:56.078Z,991.74
2019-04-23T09:43:53.879Z,991.74
2019-04-23T09:46:00.958Z,991.74
2019-04-23T09:46:55.970Z,991.72
2019-04-23T09:47:58.782Z,991.68
2019-04-23T09:49:58.934Z,991.68
2019-04-23T09:50:54.796Z,991.72
2019-04-23T09:51:59.385Z,991.61
2019-04-23T09:53:51.185Z,991.62
2019-04-23T09:54:58.623Z,991.66
2019-04-23T09:56:01.245Z,991.67
2019-04-23T09:56:50.891Z,991.64
2019-04-23T09:57:55.469Z,991.60
2019-04-23T09:58:52.207Z,991.63
2019-04-23T09:59:53.065Z,991.61
2019-04-23T10:00:46.332Z,991.64
2019-04-23T10:01:48.303Z,991.66
2019-04-23T10:02:43.852Z,991.65
2019-04-23T10:03:38.984Z,991.64
2019-04-23T10:04:39.869Z,991.59
2019-04-23T10:05:33.527Z,991.58
2019-04-23T10:06:28.275Z,991.62
2019-04-23T10:07:35.991Z,991.64
2019-04-23T10:08:31.262Z,991.61
2019-04-23T10:09:25.823Z,991.68
2019-04-23T10:10:23.111Z,991.59
2019-04-23T10:11:24.348Z,991.66
2019-04-23T10:12:24.258Z,991.65
2019-04-23T10:13:24.197Z,991.69
2019-04-23T10:14:24.117Z,991.73
2019-04-23T10:15:30.311Z,991.71
2019-04-23T10:16:25.721Z,991.70
2019-04-23T10:17:24.335Z,991.67
2019-04-23T10:18:24.392Z,991.72
2019-04-23T10:19:24.691Z,991.72
2019-04-23T10:20:24.619Z,991.74
2019-04-23T10:21:23.838Z,991.75
2019-04-23T10:22:23.172Z,991.71
2019-04-23T10:23:23.266Z,991.76
2019-04-23T10:24:23.388Z,991.78
2019-04-23T10:25:22.992Z,991.78
2019-04-23T10:26:24.116Z,991.67
2019-04-23T10:27:23.249Z,991.72
2019-04-23T10:28:24.596Z,991.75
2019-04-23T10:29:23.753Z,991.73
2019-04-23T10:30:23.751Z,991.78
2019-04-23T10:31:23.067Z,991.73
2019-04-23T10:32:22.830Z,991.75
2019-04-23T10:33:23.519Z,991.79
2019-04-23T10:34:23.275Z,991.73
2019-04-23T10:35:35.360Z,991.71
2019-04-23T10:36:27.208Z,991.76
2019-04-23T10:37:34.098Z,991.78
2019-04-23T10:38:24.629Z,991.81
2019-04-23T10:39:28.366Z,991.81
2019-04-23T10:40:28.109Z,991.73
2019-04-23T10:41:24.233Z,991.74
2019-04-23T10:42:22.773Z,991.71
2019-04-23T10:43:22.782Z,991.71
2019-04-23T10:44:23.479Z,991.73
2019-04-23T10:45:35.374Z,991.73
2019-04-23T10:46:43.570Z,991.75
2019-04-23T10:47:53.994Z,991.78
2019-04-23T10:48:49.715Z,991.74
2019-04-23T10:49:53.624Z,991.72
2019-04-23T10:51:51.913Z,991.70
2019-04-23T10:52:53.612Z,991.72
2019-04-23T10:54:02.993Z,991.72
2019-04-23T10:54:47.979Z,991.73
2019-04-23T10:55:58.982Z,991.71
2019-04-23T10:57:44.116Z,991.67
2019-04-23T10:58:46.206Z,991.75
2019-04-23T11:00:53.753Z,991.74
2019-04-23T11:01:56.702Z,991.63
2019-04-23T11:02:51.739Z,991.65
2019-04-23T11:04:57.679Z,991.71
2019-04-23T11:05:59.027Z,991.60
2019-04-23T11:06:50.130Z,991.57
2019-04-23T11:07:47.216Z,991.59
2019-04-23T11:08:51.886Z,991.61
2019-04-23T11:10:50.475Z,991.57
2019-04-23T11:11:55.182Z,991.64
2019-04-23T11:12:44.868Z,991.53
2019-04-23T11:13:53.026Z,991.57
2019-04-23T11:14:58.239Z,991.60
2019-04-23T11:16:56.696Z,991.58
2019-04-23T11:18:57.126Z,991.58
2019-04-23T11:20:54.185Z,991.57
2019-04-23T11:21:56.493Z,991.54
2019-04-23T11:23:50.094Z,991.47
2019-04-23T11:25:00.167Z,991.46
2019-04-23T11:26:06.994Z,991.42
2019-04-23T11:26:52.841Z,991.43
2019-04-23T11:27:52.543Z,991.48
2019-04-23T11:28:44.229Z,991.50
2019-04-23T11:32:19.476Z,991.41
2019-04-23T11:33:08.982Z,991.39
2019-04-23T11:34:06.295Z,991.42
2019-04-23T11:36:02.121Z,991.43
2019-04-23T11:38:06.586Z,991.42
2019-04-23T11:38:54.395Z,991.43
2019-04-23T11:39:55.392Z,991.47
2019-04-23T11:40:44.820Z,991.35
2019-04-23T11:42:01.548Z,991.36
2019-04-23T11:43:46.394Z,991.31
2019-04-23T11:45:57.622Z,991.36
2019-04-23T11:49:06.196Z,991.42
2019-04-23T11:50:01.493Z,991.34
2019-04-23T11:51:26.266Z,991.37
2019-04-23T11:52:07.618Z,991.41
2019-04-23T11:53:10.458Z,991.30
2019-04-23T11:54:53.564Z,991.29
2019-04-23T11:57:14.812Z,991.33
2019-04-23T11:58:02.700Z,991.34
2019-04-23T11:58:45.300Z,991.31
2019-04-23T12:00:05.303Z,991.32
2019-04-23T12:01:56.485Z,991.27
2019-04-23T12:02:49.991Z,991.22
2019-04-23T12:03:57.109Z,991.26
2019-04-23T12:06:09.401Z,991.28
2019-04-23T12:06:55.984Z,991.34
2019-04-23T12:07:49.948Z,991.26
2019-04-23T12:08:48.903Z,991.28
2019-04-23T12:11:11.811Z,991.23
2019-04-23T12:12:46.001Z,991.18
2019-04-23T12:13:52.557Z,991.15
2019-04-23T12:14:47.169Z,991.17
2019-04-23T12:17:03.225Z,991.18
2019-04-23T12:17:51.222Z,991.14
2019-04-23T12:20:41.522Z,991.19
2019-04-23T12:21:54.793Z,991.14
2019-04-23T12:23:03.068Z,991.13
2019-04-23T12:23:54.479Z,991.17
2019-04-23T12:26:11.510Z,991.10
2019-04-23T12:26:49.966Z,991.06
2019-04-23T12:28:52.999Z,991.09
2019-04-23T12:31:56.687Z,991.17
2019-04-23T12:33:52.288Z,991.24
2019-04-23T12:35:47.181Z,991.18
2019-04-23T12:36:45.556Z,991.23
2019-04-23T12:37:44.983Z,991.17
2019-04-23T12:38:48.966Z,991.15
2019-04-23T12:39:49.975Z,991.19
2019-04-23T12:41:55.257Z,991.16
2019-04-23T12:43:50.523Z,991.07
2019-04-23T12:44:56.623Z,991.11
2019-04-23T12:45:44.337Z,991.12
2019-04-23T12:46:55.739Z,991.12
2019-04-23T12:48:02.154Z,991.08
2019-04-23T12:48:56.738Z,991.07
2019-04-23T12:50:05.406Z,991.02
2019-04-23T12:52:02.738Z,991.05
2019-04-23T12:53:53.158Z,991.02
2019-04-23T12:55:00.390Z,991.03
2019-04-23T12:55:45.865Z,990.99
2019-04-23T12:56:58.992Z,991.00
2019-04-23T12:57:52.193Z,991.01
2019-04-23T12:58:38.215Z,990.93
2019-04-23T12:59:50.226Z,990.94
2019-04-23T13:00:40.026Z,990.95
2019-04-23T13:01:57.691Z,990.89
2019-04-23T13:03:59.739Z,990.89
2019-04-23T13:05:36.063Z,990.91
2019-04-23T13:06:50.906Z,990.92
2019-04-23T13:08:54.248Z,990.85
2019-04-23T13:09:53.629Z,990.78
2019-04-23T13:11:52.982Z,990.78
2019-04-23T13:12:52.961Z,990.83
2019-04-23T13:13:56.340Z,990.83
2019-04-23T13:15:02.786Z,990.81
2019-04-23T13:15:48.781Z,990.83
2019-04-23T13:17:02.705Z,990.82
2019-04-23T13:18:09.389Z,990.75
2019-04-23T13:18:49.831Z,990.71
2019-04-23T13:19:53.648Z,990.69
2019-04-23T13:20:41.523Z,990.71
2019-04-23T13:21:58.666Z,990.67
2019-04-23T13:22:54.912Z,990.68
2019-04-23T13:23:47.557Z,990.65
2019-04-23T13:24:50.170Z,990.64
2019-04-23T13:25:53.867Z,990.65
2019-04-23T13:26:49.865Z,990.66
2019-04-23T13:27:54.287Z,990.71
2019-04-23T13:28:45.876Z,990.66
2019-04-23T13:29:56.550Z,990.70
2019-04-23T13:31:48.190Z,990.62
2019-04-23T13:32:55.403Z,990.67
2019-04-23T13:33:45.468Z,990.60
2019-04-23T13:35:00.069Z,990.58
2019-04-23T13:36:01.059Z,990.62
2019-04-23T13:36:53.814Z,990.51
2019-04-23T13:37:57.158Z,990.51
2019-04-23T13:39:44.340Z,990.53
2019-04-23T13:40:59.638Z,990.55
2019-04-23T13:41:47.847Z,990.53
2019-04-23T13:42:52.527Z,990.50
2019-04-23T13:43:56.067Z,990.53
2019-04-23T13:44:57.841Z,990.50
2019-04-23T13:46:54.437Z,990.50
2019-04-23T13:47:53.439Z,990.46
2019-04-23T13:48:44.892Z,990.44
2019-04-23T13:49:51.253Z,990.47
2019-04-23T13:51:47.151Z,990.49
2019-04-23T13:55:04.305Z,990.41
2019-04-23T13:55:44.404Z,990.37
2019-04-23T13:58:51.589Z,990.39
2019-04-23T14:00:52.263Z,990.39
2019-04-23T14:02:04.061Z,990.39
2019-04-23T14:02:49.240Z,990.35
2019-04-23T14:03:45.437Z,990.30
2019-04-23T14:04:54.434Z,990.34
2019-04-23T14:05:41.274Z,990.33
2019-04-23T14:06:52.136Z,990.37
2019-04-23T14:07:54.528Z,990.36
2019-04-23T14:08:55.410Z,990.35
2019-04-23T14:10:13.966Z,990.43
2019-04-23T14:11:02.221Z,990.37
2019-04-23T14:11:38.657Z,990.33
2019-04-23T14:13:10.522Z,990.42
2019-04-23T14:15:53.610Z,990.35
2019-04-23T14:16:49.594Z,990.40
2019-04-23T14:19:34.340Z,990.37
2019-04-23T14:20:47.120Z,990.27
2019-04-23T14:21:46.872Z,990.24
2019-04-23T14:23:05.301Z,990.23
2019-04-23T14:24:03.420Z,990.28
2019-04-23T14:25:02.056Z,990.29
2019-04-23T14:25:59.980Z,990.24
2019-04-23T14:26:48.618Z,990.18
2019-04-23T14:27:59.786Z,990.28
2019-04-23T14:29:01.210Z,990.25
2019-04-23T14:29:56.486Z,990.16
2019-04-23T14:30:53.492Z,990.14
2019-04-23T14:31:54.928Z,990.11
2019-04-23T14:32:54.226Z,990.14
2019-04-23T14:34:03.581Z,990.14
2019-04-23T14:34:48.410Z,990.11
2019-04-23T14:35:56.368Z,990.10
2019-04-23T14:36:52.197Z,990.09
2019-04-23T14:38:01.643Z,990.11
2019-04-23T14:38:49.469Z,990.11
2019-04-23T14:39:52.967Z,990.13
2019-04-23T14:40:56.062Z,990.07
2019-04-23T14:41:53.420Z,990.01
2019-04-23T14:42:59.973Z,990.08
2019-04-23T14:43:58.080Z,990.06
2019-04-23T14:44:51.310Z,990.06
2019-04-23T14:46:17.416Z,990.13
2019-04-23T14:47:00.620Z,990.10
2019-04-23T14:48:53.935Z,990.10
2019-04-23T14:50:09.333Z,990.14
2019-04-23T14:50:48.882Z,990.10
2019-04-23T14:51:51.764Z,990.09
2019-04-23T14:52:56.737Z,990.10
2019-04-23T14:55:27.929Z,990.08
2019-04-23T14:55:58.092Z,990.03
2019-04-23T14:56:51.428Z,990.04
2019-04-23T14:58:11.225Z,990.07
2019-04-23T14:58:58.006Z,990.03
2019-04-23T14:59:53.622Z,990.03
2019-04-23T15:01:07.605Z,990.00
2019-04-23T15:01:48.943Z,989.92
2019-04-23T15:02:52.142Z,989.92
2019-04-23T15:03:47.036Z,989.94
2019-04-23T15:04:49.621Z,989.96
2019-04-23T15:06:00.880Z,989.96
2019-04-23T15:06:54.813Z,989.95
2019-04-23T15:07:50.693Z,989.93
2019-04-23T15:09:57.512Z,989.83
2019-04-23T15:11:52.772Z,989.86
2019-04-23T15:12:50.591Z,989.88
2019-04-23T15:13:51.876Z,989.84
2019-04-23T15:15:55.631Z,989.84
2019-04-23T15:16:56.391Z,989.83
2019-04-23T15:17:49.773Z,989.83
2019-04-23T15:19:52.387Z,989.81
2019-04-23T15:20:53.304Z,989.83
2019-04-23T15:23:10.801Z,989.81
2019-04-23T15:24:04.133Z,989.84
2019-04-23T15:24:57.604Z,989.84
2019-04-23T15:26:13.786Z,989.84
2019-04-23T15:27:53.167Z,989.83
2019-04-23T15:28:29.147Z,989.85
2019-04-23T15:29:42.436Z,989.80
2019-04-23T15:30:47.353Z,989.77
2019-04-23T15:31:54.583Z,989.78
2019-04-23T15:32:53.675Z,989.81
2019-04-23T15:33:55.280Z,989.78
2019-04-23T15:34:55.119Z,989.73
2019-04-23T15:36:08.643Z,989.71
2019-04-23T15:38:10.873Z,989.73
2019-04-23T15:39:10.483Z,989.70
2019-04-23T15:39:56.695Z,989.72
2019-04-23T15:40:51.189Z,989.67
2019-04-23T15:42:56.388Z,989.64